sensor_id;sensor_type;location;lat;lon;timestamp;temperature;humidity
70734;DHT22;58320;48.804;9.252;2022-09-27T00:00:40;9.30;99.90
70734;DHT22;58320;48.804;9.252;2022-09-27T00:03:08;9.30;99.90
70734;DHT22;58320;48.804;9.252;2022-09-27T00:05:35;9.30;99.90
70734;DHT22;58320;48.804;9.252;2022-09-27T00:08:01;9.30;99.90
70734;DHT22;58320;48.804;9.252;2022-09-27T00:10:27;9.30;99.90
70734;DHT22;58320;48.804;9.252;2022-09-27T00:12:53;9.30;99.90
70734;DHT22;58320;48.804;9.252;2022-09-27T00:15:20;9.30;99.90
70734;DHT22;58320;48.804;9.252;2022-09-27T00:17:46;9.30;99.90
70734;DHT22;58320;48.804;9.252;2022-09-27T00:20:17;9.30;99.90
70734;DHT22;58320;48.804;9.252;2022-09-27T00:22:45;9.30;99.90
70734;DHT22;58320;48.804;9.252;2022-09-27T00:25:13;9.30;99.90
70734;DHT22;58320;48.804;9.252;2022-09-27T00:27:39;9.30;99.90
70734;DHT22;58320;48.804;9.252;2022-09-27T00:30:05;9.30;99.90
70734;DHT22;58320;48.804;9.252;2022-09-27T00:32:31;9.30;99.90
70734;DHT22;58320;48.804;9.252;2022-09-27T00:34:57;9.30;99.90
70734;DHT22;58320;48.804;9.252;2022-09-27T00:37:23;9.30;99.90
70734;DHT22;58320;48.804;9.252;2022-09-27T00:39:50;9.40;99.90
70734;DHT22;58320;48.804;9.252;2022-09-27T00:42:16;9.30;99.90
70734;DHT22;58320;48.804;9.252;2022-09-27T00:44:48;9.30;99.90
70734;DHT22;58320;48.804;9.252;2022-09-27T00:47:37;9.40;99.90
70734;DHT22;58320;48.804;9.252;2022-09-27T00:50:31;9.40;99.90
70734;DHT22;58320;48.804;9.252;2022-09-27T00:56:00;9.40;99.90
70734;DHT22;58320;48.804;9.252;2022-09-27T00:58:36;9.50;98.80
70734;DHT22;58320;48.804;9.252;2022-09-27T01:01:08;9.50;97.50
70734;DHT22;58320;48.804;9.252;2022-09-27T01:06:32;9.60;98.20
70734;DHT22;58320;48.804;9.252;2022-09-27T01:08:58;9.60;97.50
70734;DHT22;58320;48.804;9.252;2022-09-27T01:17:21;9.60;98.10
70734;DHT22;58320;48.804;9.252;2022-09-27T01:25:59;9.70;96.80
70734;DHT22;58320;48.804;9.252;2022-09-27T01:31:59;9.70;96.80
70734;DHT22;58320;48.804;9.252;2022-09-27T01:34:49;9.70;97.50
70734;DHT22;58320;48.804;9.252;2022-09-27T01:40:58;9.70;96.70
70734;DHT22;58320;48.804;9.252;2022-09-27T01:43:51;9.70;96.70
70734;DHT22;58320;48.804;9.252;2022-09-27T01:46:25;9.70;96.50
70734;DHT22;58320;48.804;9.252;2022-09-27T01:48:55;9.70;96.70
70734;DHT22;58320;48.804;9.252;2022-09-27T01:51:27;9.70;97.10
70734;DHT22;58320;48.804;9.252;2022-09-27T01:54:00;9.60;97.20
70734;DHT22;58320;48.804;9.252;2022-09-27T01:56:46;9.70;96.60
70734;DHT22;58320;48.804;9.252;2022-09-27T02:01:48;9.70;95.90
70734;DHT22;58320;48.804;9.252;2022-09-27T02:04:20;9.80;96.10
70734;DHT22;58320;48.804;9.252;2022-09-27T02:06:52;9.80;95.50
70734;DHT22;58320;48.804;9.252;2022-09-27T02:09:32;9.80;95.70
70734;DHT22;58320;48.804;9.252;2022-09-27T02:12:06;9.90;95.00
70734;DHT22;58320;48.804;9.252;2022-09-27T02:22:43;9.80;99.00
70734;DHT22;58320;48.804;9.252;2022-09-27T02:25:33;9.70;99.90
70734;DHT22;58320;48.804;9.252;2022-09-27T02:28:23;9.70;99.90
70734;DHT22;58320;48.804;9.252;2022-09-27T02:30:53;9.70;99.90
70734;DHT22;58320;48.804;9.252;2022-09-27T02:33:23;9.70;99.90
70734;DHT22;58320;48.804;9.252;2022-09-27T02:35:52;9.70;99.90
70734;DHT22;58320;48.804;9.252;2022-09-27T02:38:19;9.60;99.90
70734;DHT22;58320;48.804;9.252;2022-09-27T02:40:46;9.60;99.90
70734;DHT22;58320;48.804;9.252;2022-09-27T02:43:14;9.60;99.90
70734;DHT22;58320;48.804;9.252;2022-09-27T02:51:44;9.40;99.90
70734;DHT22;58320;48.804;9.252;2022-09-27T03:00:20;9.30;99.90
70734;DHT22;58320;48.804;9.252;2022-09-27T03:05:41;9.20;99.90
70734;DHT22;58320;48.804;9.252;2022-09-27T03:08:10;9.10;99.90
70734;DHT22;58320;48.804;9.252;2022-09-27T03:10:37;9.10;99.90
70734;DHT22;58320;48.804;9.252;2022-09-27T03:13:03;9.00;99.90
70734;DHT22;58320;48.804;9.252;2022-09-27T03:15:29;8.90;99.90
70734;DHT22;58320;48.804;9.252;2022-09-27T03:17:56;8.90;99.90
70734;DHT22;58320;48.804;9.252;2022-09-27T03:20:22;8.80;99.90
70734;DHT22;58320;48.804;9.252;2022-09-27T03:22:48;8.80;99.90
70734;DHT22;58320;48.804;9.252;2022-09-27T03:25:14;8.80;99.90
70734;DHT22;58320;48.804;9.252;2022-09-27T03:27:40;8.70;99.90
70734;DHT22;58320;48.804;9.252;2022-09-27T03:30:06;8.70;99.90
70734;DHT22;58320;48.804;9.252;2022-09-27T03:32:32;8.70;99.90
70734;DHT22;58320;48.804;9.252;2022-09-27T03:34:58;8.70;99.90
70734;DHT22;58320;48.804;9.252;2022-09-27T03:37:24;8.70;99.90
70734;DHT22;58320;48.804;9.252;2022-09-27T03:39:53;8.70;99.90
70734;DHT22;58320;48.804;9.252;2022-09-27T03:42:20;8.70;99.90
70734;DHT22;58320;48.804;9.252;2022-09-27T03:44:45;8.70;99.90
70734;DHT22;58320;48.804;9.252;2022-09-27T03:47:11;8.70;99.90
70734;DHT22;58320;48.804;9.252;2022-09-27T03:49:37;8.70;99.90
70734;DHT22;58320;48.804;9.252;2022-09-27T03:52:03;8.70;99.90
70734;DHT22;58320;48.804;9.252;2022-09-27T03:54:29;8.70;99.90
70734;DHT22;58320;48.804;9.252;2022-09-27T03:56:55;8.60;99.90
70734;DHT22;58320;48.804;9.252;2022-09-27T03:59:20;8.60;99.90
70734;DHT22;58320;48.804;9.252;2022-09-27T04:01:46;8.60;99.90
70734;DHT22;58320;48.804;9.252;2022-09-27T04:04:12;8.70;99.90
70734;DHT22;58320;48.804;9.252;2022-09-27T04:06:38;8.70;99.90
70734;DHT22;58320;48.804;9.252;2022-09-27T04:09:04;8.70;99.90
70734;DHT22;58320;48.804;9.252;2022-09-27T04:11:30;8.70;99.90
70734;DHT22;58320;48.804;9.252;2022-09-27T04:13:56;8.70;99.90
70734;DHT22;58320;48.804;9.252;2022-09-27T04:16:22;8.70;99.90
70734;DHT22;58320;48.804;9.252;2022-09-27T04:18:49;8.70;99.90
70734;DHT22;58320;48.804;9.252;2022-09-27T04:21:14;8.80;99.90
70734;DHT22;58320;48.804;9.252;2022-09-27T04:23:40;8.80;99.90
70734;DHT22;58320;48.804;9.252;2022-09-27T04:26:07;8.80;99.10
70734;DHT22;58320;48.804;9.252;2022-09-27T04:28:32;8.90;97.50
70734;DHT22;58320;48.804;9.252;2022-09-27T04:30:58;8.90;96.50
70734;DHT22;58320;48.804;9.252;2022-09-27T04:33:24;8.90;96.60
70734;DHT22;58320;48.804;9.252;2022-09-27T04:35:50;8.90;97.10
70734;DHT22;58320;48.804;9.252;2022-09-27T04:38:34;8.90;97.30
70734;DHT22;58320;48.804;9.252;2022-09-27T04:41:00;9.00;97.00
70734;DHT22;58320;48.804;9.252;2022-09-27T04:43:27;8.90;97.30
70734;DHT22;58320;48.804;9.252;2022-09-27T04:45:53;9.00;97.50
70734;DHT22;58320;48.804;9.252;2022-09-27T04:48:19;9.00;96.90
70734;DHT22;58320;48.804;9.252;2022-09-27T04:50:45;9.00;96.70
70734;DHT22;58320;48.804;9.252;2022-09-27T04:53:14;9.10;95.50
70734;DHT22;58320;48.804;9.252;2022-09-27T04:55:45;9.10;95.50
70734;DHT22;58320;48.804;9.252;2022-09-27T04:58:11;9.10;95.00
70734;DHT22;58320;48.804;9.252;2022-09-27T05:00:37;9.10;94.60
70734;DHT22;58320;48.804;9.252;2022-09-27T05:03:03;9.20;93.30
70734;DHT22;58320;48.804;9.252;2022-09-27T05:05:29;9.20;93.00
70734;DHT22;58320;48.804;9.252;2022-09-27T05:07:55;9.20;94.30
70734;DHT22;58320;48.804;9.252;2022-09-27T05:10:20;9.20;94.10
70734;DHT22;58320;48.804;9.252;2022-09-27T05:12:46;9.20;94.90
70734;DHT22;58320;48.804;9.252;2022-09-27T05:15:12;9.10;95.00
70734;DHT22;58320;48.804;9.252;2022-09-27T05:17:38;9.10;95.10
70734;DHT22;58320;48.804;9.252;2022-09-27T05:20:04;9.40;95.70
70734;DHT22;58320;48.804;9.252;2022-09-27T05:22:30;9.10;95.90
70734;DHT22;58320;48.804;9.252;2022-09-27T05:24:56;9.10;96.70
70734;DHT22;58320;48.804;9.252;2022-09-27T05:27:22;9.10;97.00
70734;DHT22;58320;48.804;9.252;2022-09-27T05:29:47;9.10;96.70
70734;DHT22;58320;48.804;9.252;2022-09-27T05:32:14;9.10;96.40
70734;DHT22;58320;48.804;9.252;2022-09-27T05:34:40;9.10;96.30
70734;DHT22;58320;48.804;9.252;2022-09-27T05:37:06;9.10;96.70
70734;DHT22;58320;48.804;9.252;2022-09-27T05:39:32;9.10;97.10
70734;DHT22;58320;48.804;9.252;2022-09-27T05:41:58;9.00;98.00
70734;DHT22;58320;48.804;9.252;2022-09-27T05:44:24;9.00;98.60
70734;DHT22;58320;48.804;9.252;2022-09-27T05:46:53;9.00;99.50
70734;DHT22;58320;48.804;9.252;2022-09-27T05:49:18;8.90;99.90
70734;DHT22;58320;48.804;9.252;2022-09-27T05:51:44;8.90;99.90
70734;DHT22;58320;48.804;9.252;2022-09-27T05:54:10;8.90;99.90
70734;DHT22;58320;48.804;9.252;2022-09-27T05:56:36;8.90;99.90
70734;DHT22;58320;48.804;9.252;2022-09-27T05:59:02;8.90;99.90
70734;DHT22;58320;48.804;9.252;2022-09-27T06:01:28;8.90;99.90
70734;DHT22;58320;48.804;9.252;2022-09-27T06:03:54;8.90;99.90
70734;DHT22;58320;48.804;9.252;2022-09-27T06:06:20;8.80;99.90
70734;DHT22;58320;48.804;9.252;2022-09-27T06:08:48;8.90;99.90
70734;DHT22;58320;48.804;9.252;2022-09-27T06:11:14;8.90;99.90
70734;DHT22;58320;48.804;9.252;2022-09-27T06:13:40;8.90;99.90
70734;DHT22;58320;48.804;9.252;2022-09-27T06:16:09;8.90;99.90
70734;DHT22;58320;48.804;9.252;2022-09-27T06:18:36;8.90;99.90
70734;DHT22;58320;48.804;9.252;2022-09-27T06:21:03;8.90;99.90
70734;DHT22;58320;48.804;9.252;2022-09-27T06:23:30;8.90;99.90
70734;DHT22;58320;48.804;9.252;2022-09-27T06:26:05;8.90;99.90
70734;DHT22;58320;48.804;9.252;2022-09-27T06:28:32;8.90;99.90
70734;DHT22;58320;48.804;9.252;2022-09-27T06:31:03;8.90;99.90
70734;DHT22;58320;48.804;9.252;2022-09-27T06:33:31;9.00;99.90
70734;DHT22;58320;48.804;9.252;2022-09-27T06:36:01;9.00;99.40
70734;DHT22;58320;48.804;9.252;2022-09-27T06:38:28;9.00;99.40
70734;DHT22;58320;48.804;9.252;2022-09-27T06:40:54;9.00;98.00
70734;DHT22;58320;48.804;9.252;2022-09-27T06:43:22;9.00;97.40
70734;DHT22;58320;48.804;9.252;2022-09-27T06:45:48;9.10;97.10
70734;DHT22;58320;48.804;9.252;2022-09-27T06:48:15;9.30;96.50
70734;DHT22;58320;48.804;9.252;2022-09-27T06:50:43;9.40;94.60
70734;DHT22;58320;48.804;9.252;2022-09-27T06:53:11;9.40;92.10
70734;DHT22;58320;48.804;9.252;2022-09-27T06:55:39;9.40;92.80
70734;DHT22;58320;48.804;9.252;2022-09-27T06:58:05;9.30;93.50
70734;DHT22;58320;48.804;9.252;2022-09-27T07:00:50;9.20;91.20
70734;DHT22;58320;48.804;9.252;2022-09-27T07:03:18;9.10;91.60
70734;DHT22;58320;48.804;9.252;2022-09-27T07:05:57;9.00;91.40
70734;DHT22;58320;48.804;9.252;2022-09-27T07:08:24;8.80;92.80
70734;DHT22;58320;48.804;9.252;2022-09-27T07:11:00;8.80;94.10
70734;DHT22;58320;48.804;9.252;2022-09-27T07:13:28;8.80;94.50
70734;DHT22;58320;48.804;9.252;2022-09-27T07:15:59;8.90;93.10
70734;DHT22;58320;48.804;9.252;2022-09-27T07:18:26;8.90;93.50
70734;DHT22;58320;48.804;9.252;2022-09-27T07:20:53;9.00;93.70
70734;DHT22;58320;48.804;9.252;2022-09-27T07:23:19;9.00;93.70
70734;DHT22;58320;48.804;9.252;2022-09-27T07:25:45;9.10;94.70
70734;DHT22;58320;48.804;9.252;2022-09-27T07:28:17;9.10;94.40
70734;DHT22;58320;48.804;9.252;2022-09-27T07:30:44;9.00;92.30
70734;DHT22;58320;48.804;9.252;2022-09-27T07:33:11;9.00;92.20
70734;DHT22;58320;48.804;9.252;2022-09-27T07:35:41;9.10;92.60
70734;DHT22;58320;48.804;9.252;2022-09-27T07:38:09;9.10;93.90
70734;DHT22;58320;48.804;9.252;2022-09-27T07:40:38;9.10;94.30
70734;DHT22;58320;48.804;9.252;2022-09-27T07:43:04;9.10;93.50
70734;DHT22;58320;48.804;9.252;2022-09-27T07:45:32;9.00;93.70
70734;DHT22;58320;48.804;9.252;2022-09-27T07:47:58;8.90;95.30
70734;DHT22;58320;48.804;9.252;2022-09-27T07:50:24;8.90;97.20
70734;DHT22;58320;48.804;9.252;2022-09-27T07:52:51;8.90;96.30
70734;DHT22;58320;48.804;9.252;2022-09-27T07:55:18;8.80;96.10
70734;DHT22;58320;48.804;9.252;2022-09-27T07:57:44;8.80;96.40
70734;DHT22;58320;48.804;9.252;2022-09-27T08:00:13;8.80;96.50
70734;DHT22;58320;48.804;9.252;2022-09-27T08:02:41;8.90;96.20
70734;DHT22;58320;48.804;9.252;2022-09-27T08:05:09;9.00;96.50
70734;DHT22;58320;48.804;9.252;2022-09-27T08:07:36;9.20;95.90
70734;DHT22;58320;48.804;9.252;2022-09-27T08:10:05;9.30;95.30
70734;DHT22;58320;48.804;9.252;2022-09-27T08:12:32;9.60;91.30
70734;DHT22;58320;48.804;9.252;2022-09-27T08:14:57;9.80;89.20
70734;DHT22;58320;48.804;9.252;2022-09-27T08:17:27;10.10;89.30
70734;DHT22;58320;48.804;9.252;2022-09-27T08:19:53;10.20;86.80
70734;DHT22;58320;48.804;9.252;2022-09-27T08:22:20;10.20;86.00
70734;DHT22;58320;48.804;9.252;2022-09-27T08:24:46;10.10;83.00
70734;DHT22;58320;48.804;9.252;2022-09-27T08:27:13;10.10;82.50
70734;DHT22;58320;48.804;9.252;2022-09-27T08:29:40;10.10;82.30
70734;DHT22;58320;48.804;9.252;2022-09-27T08:32:08;10.10;82.10
70734;DHT22;58320;48.804;9.252;2022-09-27T08:34:34;10.20;81.90
70734;DHT22;58320;48.804;9.252;2022-09-27T08:37:01;10.20;80.90
70734;DHT22;58320;48.804;9.252;2022-09-27T08:39:27;10.40;80.50
70734;DHT22;58320;48.804;9.252;2022-09-27T08:44:45;11.00;76.20
70734;DHT22;58320;48.804;9.252;2022-09-27T08:47:26;11.20;76.60
70734;DHT22;58320;48.804;9.252;2022-09-27T08:58:25;11.20;72.20
70734;DHT22;58320;48.804;9.252;2022-09-27T09:01:00;11.20;72.20
70734;DHT22;58320;48.804;9.252;2022-09-27T09:03:36;11.20;70.80
70734;DHT22;58320;48.804;9.252;2022-09-27T09:06:13;11.30;71.50
70734;DHT22;58320;48.804;9.252;2022-09-27T09:09:25;11.30;72.00
70734;DHT22;58320;48.804;9.252;2022-09-27T09:12:13;11.40;71.90
70734;DHT22;58320;48.804;9.252;2022-09-27T09:18:52;11.30;71.40
70734;DHT22;58320;48.804;9.252;2022-09-27T09:36:00;10.00;84.20
70734;DHT22;58320;48.804;9.252;2022-09-27T09:39:08;10.20;80.70
70734;DHT22;58320;48.804;9.252;2022-09-27T09:50:48;11.30;74.00
70734;DHT22;58320;48.804;9.252;2022-09-27T09:53:28;11.80;71.70
70734;DHT22;58320;48.804;9.252;2022-09-27T09:56:01;12.10;69.00
70734;DHT22;58320;48.804;9.252;2022-09-27T09:58:45;12.40;69.70
70734;DHT22;58320;48.804;9.252;2022-09-27T10:01:21;12.70;66.40
70734;DHT22;58320;48.804;9.252;2022-09-27T10:03:49;12.90;64.60
70734;DHT22;58320;48.804;9.252;2022-09-27T10:06:16;13.00;62.60
70734;DHT22;58320;48.804;9.252;2022-09-27T10:08:42;13.00;62.80
70734;DHT22;58320;48.804;9.252;2022-09-27T10:11:37;12.90;62.40
70734;DHT22;58320;48.804;9.252;2022-09-27T10:14:13;12.80;62.60
70734;DHT22;58320;48.804;9.252;2022-09-27T10:16:52;13.20;63.60
70734;DHT22;58320;48.804;9.252;2022-09-27T10:19:24;13.70;59.00
70734;DHT22;58320;48.804;9.252;2022-09-27T10:22:01;14.10;59.00
70734;DHT22;58320;48.804;9.252;2022-09-27T10:24:59;14.50;59.00
70734;DHT22;58320;48.804;9.252;2022-09-27T10:27:28;14.50;58.20
70734;DHT22;58320;48.804;9.252;2022-09-27T10:30:29;14.20;55.60
70734;DHT22;58320;48.804;9.252;2022-09-27T10:32:59;13.90;56.90
70734;DHT22;58320;48.804;9.252;2022-09-27T10:40:42;13.00;58.90
70734;DHT22;58320;48.804;9.252;2022-09-27T10:43:26;12.80;61.50
70734;DHT22;58320;48.804;9.252;2022-09-27T10:46:32;12.40;60.70
70734;DHT22;58320;48.804;9.252;2022-09-27T10:49:19;12.10;65.10
70734;DHT22;58320;48.804;9.252;2022-09-27T10:52:13;11.50;68.90
70734;DHT22;58320;48.804;9.252;2022-09-27T10:54:41;11.40;68.30
70734;DHT22;58320;48.804;9.252;2022-09-27T10:57:17;11.50;69.10
70734;DHT22;58320;48.804;9.252;2022-09-27T10:59:55;11.80;68.40
70734;DHT22;58320;48.804;9.252;2022-09-27T11:02:33;12.20;67.20
70734;DHT22;58320;48.804;9.252;2022-09-27T11:05:06;12.30;63.70
70734;DHT22;58320;48.804;9.252;2022-09-27T11:07:35;12.30;64.90
70734;DHT22;58320;48.804;9.252;2022-09-27T11:13:16;12.50;63.20
70734;DHT22;58320;48.804;9.252;2022-09-27T11:18:53;12.60;62.20
70734;DHT22;58320;48.804;9.252;2022-09-27T11:30:22;12.70;59.10
70734;DHT22;58320;48.804;9.252;2022-09-27T11:58:14;12.60;59.50
70734;DHT22;58320;48.804;9.252;2022-09-27T12:00:57;12.50;59.60
70734;DHT22;58320;48.804;9.252;2022-09-27T12:06:16;12.10;61.40
70734;DHT22;58320;48.804;9.252;2022-09-27T12:09:06;12.10;62.50
70734;DHT22;58320;48.804;9.252;2022-09-27T12:11:52;12.00;63.60
70734;DHT22;58320;48.804;9.252;2022-09-27T12:14:42;11.20;70.00
70734;DHT22;58320;48.804;9.252;2022-09-27T12:17:34;10.30;75.50
70734;DHT22;58320;48.804;9.252;2022-09-27T12:20:09;10.00;77.30
70734;DHT22;58320;48.804;9.252;2022-09-27T12:22:53;9.50;80.30
70734;DHT22;58320;48.804;9.252;2022-09-27T12:25:19;9.20;81.20
70734;DHT22;58320;48.804;9.252;2022-09-27T12:30:57;8.80;86.90
70734;DHT22;58320;48.804;9.252;2022-09-27T12:33:42;8.60;88.80
70734;DHT22;58320;48.804;9.252;2022-09-27T12:36:32;8.50;91.30
70734;DHT22;58320;48.804;9.252;2022-09-27T12:42:00;8.60;93.50
70734;DHT22;58320;48.804;9.252;2022-09-27T12:44:38;8.80;95.10
70734;DHT22;58320;48.804;9.252;2022-09-27T12:47:38;9.00;94.40
70734;DHT22;58320;48.804;9.252;2022-09-27T12:50:53;9.10;92.80
70734;DHT22;58320;48.804;9.252;2022-09-27T13:00:17;9.60;93.30
70734;DHT22;58320;48.804;9.252;2022-09-27T13:06:07;10.00;89.60
70734;DHT22;58320;48.804;9.252;2022-09-27T13:12:23;11.50;88.80
70734;DHT22;58320;48.804;9.252;2022-09-27T13:15:04;12.10;81.90
70734;DHT22;58320;48.804;9.252;2022-09-27T13:20:35;11.60;82.30
70734;DHT22;58320;48.804;9.252;2022-09-27T13:31:07;10.80;81.80
70734;DHT22;58320;48.804;9.252;2022-09-27T13:33:47;10.40;85.90
70734;DHT22;58320;48.804;9.252;2022-09-27T13:44:35;9.30;94.60
70734;DHT22;58320;48.804;9.252;2022-09-27T13:47:30;9.20;94.80
70734;DHT22;58320;48.804;9.252;2022-09-27T13:50:19;9.10;96.20
70734;DHT22;58320;48.804;9.252;2022-09-27T13:55:52;9.10;97.80
70734;DHT22;58320;48.804;9.252;2022-09-27T14:00:50;9.20;98.70
70734;DHT22;58320;48.804;9.252;2022-09-27T14:03:44;9.20;98.00
70734;DHT22;58320;48.804;9.252;2022-09-27T14:06:21;9.20;98.10
70734;DHT22;58320;48.804;9.252;2022-09-27T14:08:57;9.20;98.00
70734;DHT22;58320;48.804;9.252;2022-09-27T14:11:32;9.20;97.50
70734;DHT22;58320;48.804;9.252;2022-09-27T14:14:02;9.10;96.80
70734;DHT22;58320;48.804;9.252;2022-09-27T14:16:33;9.00;97.70
70734;DHT22;58320;48.804;9.252;2022-09-27T14:19:02;9.00;98.20
70734;DHT22;58320;48.804;9.252;2022-09-27T14:21:36;8.90;98.40
70734;DHT22;58320;48.804;9.252;2022-09-27T14:24:19;8.80;98.90
70734;DHT22;58320;48.804;9.252;2022-09-27T14:26:46;8.70;99.30
70734;DHT22;58320;48.804;9.252;2022-09-27T14:29:20;8.70;99.80
70734;DHT22;58320;48.804;9.252;2022-09-27T14:32:04;8.70;99.90
70734;DHT22;58320;48.804;9.252;2022-09-27T14:34:33;8.70;99.90
70734;DHT22;58320;48.804;9.252;2022-09-27T14:36:59;8.60;99.90
70734;DHT22;58320;48.804;9.252;2022-09-27T14:39:44;8.60;99.90
70734;DHT22;58320;48.804;9.252;2022-09-27T14:42:20;8.90;99.90
70734;DHT22;58320;48.804;9.252;2022-09-27T14:44:48;9.20;99.90
70734;DHT22;58320;48.804;9.252;2022-09-27T14:47:22;9.40;99.90
70734;DHT22;58320;48.804;9.252;2022-09-27T14:49:58;9.70;99.90
70734;DHT22;58320;48.804;9.252;2022-09-27T14:54:58;10.20;99.90
70734;DHT22;58320;48.804;9.252;2022-09-27T14:57:31;10.40;97.40
70734;DHT22;58320;48.804;9.252;2022-09-27T15:00:00;10.40;94.80
70734;DHT22;58320;48.804;9.252;2022-09-27T15:02:34;10.30;94.90
70734;DHT22;58320;48.804;9.252;2022-09-27T15:05:02;10.50;96.20
70734;DHT22;58320;48.804;9.252;2022-09-27T15:07:30;10.50;94.90
70734;DHT22;58320;48.804;9.252;2022-09-27T15:09:57;10.80;97.10
70734;DHT22;58320;48.804;9.252;2022-09-27T15:12:24;11.50;97.30
70734;DHT22;58320;48.804;9.252;2022-09-27T15:14:52;12.30;92.30
70734;DHT22;58320;48.804;9.252;2022-09-27T15:17:20;12.60;83.40
70734;DHT22;58320;48.804;9.252;2022-09-27T15:20:16;12.30;83.20
70734;DHT22;58320;48.804;9.252;2022-09-27T15:22:44;11.90;84.20
70734;DHT22;58320;48.804;9.252;2022-09-27T15:30:39;10.90;91.30
70734;DHT22;58320;48.804;9.252;2022-09-27T15:33:21;11.00;92.00
70734;DHT22;58320;48.804;9.252;2022-09-27T15:36:00;11.00;91.00
70734;DHT22;58320;48.804;9.252;2022-09-27T15:41:10;10.70;90.20
70734;DHT22;58320;48.804;9.252;2022-09-27T15:43:49;10.50;91.20
70734;DHT22;58320;48.804;9.252;2022-09-27T15:46:33;10.40;93.60
70734;DHT22;58320;48.804;9.252;2022-09-27T15:51:59;10.60;96.10
70734;DHT22;58320;48.804;9.252;2022-09-27T15:54:29;10.70;94.60
70734;DHT22;58320;48.804;9.252;2022-09-27T15:56:59;10.80;94.00
70734;DHT22;58320;48.804;9.252;2022-09-27T15:59:33;10.80;93.40
70734;DHT22;58320;48.804;9.252;2022-09-27T16:02:03;10.70;93.30
70734;DHT22;58320;48.804;9.252;2022-09-27T16:04:36;10.60;93.30
70734;DHT22;58320;48.804;9.252;2022-09-27T16:07:03;10.40;91.50
70734;DHT22;58320;48.804;9.252;2022-09-27T16:09:29;10.20;91.80
70734;DHT22;58320;48.804;9.252;2022-09-27T16:11:55;10.20;92.40
70734;DHT22;58320;48.804;9.252;2022-09-27T16:14:21;10.50;91.50
70734;DHT22;58320;48.804;9.252;2022-09-27T16:16:52;10.50;87.30
70734;DHT22;58320;48.804;9.252;2022-09-27T16:19:19;10.40;88.70
70734;DHT22;58320;48.804;9.252;2022-09-27T16:21:45;10.10;79.60
70734;DHT22;58320;48.804;9.252;2022-09-27T16:24:12;10.00;79.30
70734;DHT22;58320;48.804;9.252;2022-09-27T16:26:39;9.90;76.80
70734;DHT22;58320;48.804;9.252;2022-09-27T16:29:10;9.90;75.60
70734;DHT22;58320;48.804;9.252;2022-09-27T16:31:38;9.90;76.40
70734;DHT22;58320;48.804;9.252;2022-09-27T16:34:05;9.80;75.20
70734;DHT22;58320;48.804;9.252;2022-09-27T16:36:31;9.70;76.60
70734;DHT22;58320;48.804;9.252;2022-09-27T16:38:56;9.70;77.20
70734;DHT22;58320;48.804;9.252;2022-09-27T16:41:22;9.70;77.50
70734;DHT22;58320;48.804;9.252;2022-09-27T16:43:48;9.70;75.50
70734;DHT22;58320;48.804;9.252;2022-09-27T16:46:15;9.70;75.90
70734;DHT22;58320;48.804;9.252;2022-09-27T16:48:44;9.70;76.10
70734;DHT22;58320;48.804;9.252;2022-09-27T16:51:16;9.70;75.30
70734;DHT22;58320;48.804;9.252;2022-09-27T16:54:02;9.70;77.00
70734;DHT22;58320;48.804;9.252;2022-09-27T16:56:30;9.70;75.20
70734;DHT22;58320;48.804;9.252;2022-09-27T16:58:58;9.70;75.90
70734;DHT22;58320;48.804;9.252;2022-09-27T17:01:25;9.70;75.60
70734;DHT22;58320;48.804;9.252;2022-09-27T17:03:53;9.70;76.10
70734;DHT22;58320;48.804;9.252;2022-09-27T17:06:19;9.60;76.40
70734;DHT22;58320;48.804;9.252;2022-09-27T17:08:45;9.60;76.70
70734;DHT22;58320;48.804;9.252;2022-09-27T17:11:15;9.60;76.90
70734;DHT22;58320;48.804;9.252;2022-09-27T17:13:43;9.60;76.90
70734;DHT22;58320;48.804;9.252;2022-09-27T17:16:10;9.60;77.80
70734;DHT22;58320;48.804;9.252;2022-09-27T17:18:38;9.60;75.80
70734;DHT22;58320;48.804;9.252;2022-09-27T17:21:05;9.60;77.00
70734;DHT22;58320;48.804;9.252;2022-09-27T17:23:33;9.60;75.50
70734;DHT22;58320;48.804;9.252;2022-09-27T17:26:20;9.50;76.60
70734;DHT22;58320;48.804;9.252;2022-09-27T17:28:47;9.40;77.30
70734;DHT22;58320;48.804;9.252;2022-09-27T17:31:16;9.40;78.20
70734;DHT22;58320;48.804;9.252;2022-09-27T17:33:45;9.30;78.10
70734;DHT22;58320;48.804;9.252;2022-09-27T17:36:17;9.40;77.50
70734;DHT22;58320;48.804;9.252;2022-09-27T17:38:45;9.40;78.10
70734;DHT22;58320;48.804;9.252;2022-09-27T17:41:14;9.40;78.80
70734;DHT22;58320;48.804;9.252;2022-09-27T17:43:43;9.40;79.00
70734;DHT22;58320;48.804;9.252;2022-09-27T17:46:26;9.40;80.60
70734;DHT22;58320;48.804;9.252;2022-09-27T17:48:53;9.40;80.10
70734;DHT22;58320;48.804;9.252;2022-09-27T17:51:39;9.30;80.30
70734;DHT22;58320;48.804;9.252;2022-09-27T17:54:07;9.30;80.50
70734;DHT22;58320;48.804;9.252;2022-09-27T17:56:39;9.30;81.50
70734;DHT22;58320;48.804;9.252;2022-09-27T17:59:06;9.30;81.60
70734;DHT22;58320;48.804;9.252;2022-09-27T18:01:32;9.30;82.60
70734;DHT22;58320;48.804;9.252;2022-09-27T18:03:59;9.30;81.70
70734;DHT22;58320;48.804;9.252;2022-09-27T18:06:26;9.30;82.60
70734;DHT22;58320;48.804;9.252;2022-09-27T18:08:54;9.30;83.10
70734;DHT22;58320;48.804;9.252;2022-09-27T18:11:23;9.20;82.50
70734;DHT22;58320;48.804;9.252;2022-09-27T18:13:55;9.20;83.10
70734;DHT22;58320;48.804;9.252;2022-09-27T18:16:25;9.10;84.50
70734;DHT22;58320;48.804;9.252;2022-09-27T18:18:58;9.00;84.50
70734;DHT22;58320;48.804;9.252;2022-09-27T18:21:24;9.00;83.10
70734;DHT22;58320;48.804;9.252;2022-09-27T18:23:53;8.90;84.90
70734;DHT22;58320;48.804;9.252;2022-09-27T18:26:21;8.90;85.30
70734;DHT22;58320;48.804;9.252;2022-09-27T18:28:49;8.90;83.60
70734;DHT22;58320;48.804;9.252;2022-09-27T18:31:17;8.90;84.20
70734;DHT22;58320;48.804;9.252;2022-09-27T18:33:44;8.80;83.80
70734;DHT22;58320;48.804;9.252;2022-09-27T18:36:18;8.90;84.30
70734;DHT22;58320;48.804;9.252;2022-09-27T18:38:50;8.90;84.30
70734;DHT22;58320;48.804;9.252;2022-09-27T18:41:18;8.90;83.90
70734;DHT22;58320;48.804;9.252;2022-09-27T18:43:46;8.90;84.50
70734;DHT22;58320;48.804;9.252;2022-09-27T18:46:17;8.90;84.20
70734;DHT22;58320;48.804;9.252;2022-09-27T18:48:44;8.90;83.80
70734;DHT22;58320;48.804;9.252;2022-09-27T18:51:16;8.90;84.10
70734;DHT22;58320;48.804;9.252;2022-09-27T18:53:44;8.80;85.00
70734;DHT22;58320;48.804;9.252;2022-09-27T18:56:15;8.80;84.90
70734;DHT22;58320;48.804;9.252;2022-09-27T18:58:43;8.70;82.90
70734;DHT22;58320;48.804;9.252;2022-09-27T19:01:13;8.70;85.30
70734;DHT22;58320;48.804;9.252;2022-09-27T19:03:41;8.70;84.60
70734;DHT22;58320;48.804;9.252;2022-09-27T19:08:41;8.60;84.30
70734;DHT22;58320;48.804;9.252;2022-09-27T19:11:18;8.50;84.10
70734;DHT22;58320;48.804;9.252;2022-09-27T19:13:44;8.40;84.00
70734;DHT22;58320;48.804;9.252;2022-09-27T19:16:15;8.40;83.60
70734;DHT22;58320;48.804;9.252;2022-09-27T19:18:40;8.30;83.50
70734;DHT22;58320;48.804;9.252;2022-09-27T19:21:12;8.30;84.30
70734;DHT22;58320;48.804;9.252;2022-09-27T19:23:39;8.20;85.10
70734;DHT22;58320;48.804;9.252;2022-09-27T19:26:07;8.20;83.90